Nearby METAR Reports

 

EGSS - Stansted Airport, United Kingdom
Distance from station: NW 15mi, 24km
Updated: 01/04/2020 01:50
Clear
Clear
 Wind from varies
Wind: varies 2 mph , 4 km/h
Temperature: -2°C
Dew Point: -3°C
Humidity: 93%
Barometer: 1028 hPa
Clouds: Clear
Visibility: 6 miles , 10 km
2020/04/01 00:50 EGSS 010050Z AUTO VRB02KT 9999 NCD M02/M03 Q1028
EGMC - Southend-On-Sea, United Kingdom
Distance from station: SE 15mi, 25km
Updated: 01/04/2020 01:50
Clear
Clear
 Wind from NNW
Wind: NNW 3 mph , 6 km/h
Temperature: 0°C
Dew Point: -1°C
Humidity: 93%
Barometer: 1028 hPa
Summary: Clear
Visibility: greater than 7 miles , 10 km
2020/04/01 00:50 EGMC 010050Z 33003KT CAVOK M00/M01 Q1028
 
EGLC - London City Airp, United Kingdom
Distance from station: SW 24mi, 39km
Updated: 01/04/2020 01:50
Clear
Clear
 Wind from varies
Wind: varies 2 mph , 4 km/h
Temperature: 3°C
Dew Point: -1°C
Humidity: 75%
Barometer: 1028 hPa
Clouds: Clear
Visibility: 6 miles , 10 km
2020/04/01 00:50 EGLC 010050Z AUTO VRB02KT 9999 NCD 03/M01 Q1028
EGUW - Wattisham Raf, United Kingdom
Distance from station: NE 34mi, 54km
Updated: 01/04/2020 01:50
Clear
Clear
 Wind from N
Wind: N 2 mph , 4 km/h
Temperature: 0°C
Dew Point: -2°C
Humidity: 87%
Barometer: 1027 hPa
Clouds: Clear
Visibility: 6 miles , 10 km
2020/04/01 00:50 EGUW 010050Z AUTO 35002KT 9999 NCD M00/M02 Q1027
 
EGGW - Luton Airport, United Kingdom
Distance from station: WNW 37mi, 59km
Updated: 01/04/2020 01:50
Clear
Clear
 Wind from NNE
Wind: NNE 1 mph , 2 km/h
Temperature: 1°C
Dew Point: -2°C
Humidity: 81%
Barometer: 1028 hPa
Clouds: Clear
Visibility: 6 miles , 10 km
2020/04/01 00:50 EGGW 010050Z AUTO 02001KT 9999 NCD 01/M02 Q1028
EGWU - Northolt Raf, United Kingdom
Distance from station: WSW 40mi, 64km
Updated: 01/04/2020 01:50
Clear
Clear
 Wind from NNE
Wind: NNE 3 mph , 6 km/h
Temperature: 0°C
Dew Point: -3°C
Humidity: 80%
Barometer: 1028 hPa
Clouds: Clear
Visibility: 6 miles , 10 km
2020/04/01 00:50 EGWU 010050Z AUTO 02003KT 9999 // NCD 00/M03 Q1028